Alajuela, Costa Rica

1:25 AM CST on February 11, 2016 (GMT -0600)
Pozos de Santa Ana | | Change Station
CLOSE
Current Station
Personal Weather Station
Location: San Jose, San Jose
Elevation: 2825 ft
Nearby Weather Stations

Elev 2825 ft 9.96 °N, 84.19 °W | Updated 8 seconds ago

Partly Cloudy
Partly Cloudy
70.5 °F
Feels Like 71 °F
N
20.8
Wind Variable Wind from ESE
Gusts 24.8 mph

Today
High -- | Low -- °F
--% Chance of Precip.
Yesterday
High -- | Low -- °F
Precip. -- in
Pressure 30.02 in
Visibility 6.2 miles
Clouds Few 3000 ft
Heat Index 71 °F
Dew Point 64 °F
Humidity 80%
Rainfall 0.00 in
Snow Depth Not available.
5:57 AM 5:44 PM
Waxing Crescent, 10% visible
METAR MROC 110700Z 08007KT 9999 FEW030 21/15 A3002 NOSIG
Pressure 30.02 in
Visibility 6.2 miles
Clouds Few 3000 ft
Heat Index 71 °F
Dew Point 64 °F
Humidity 80%
Rainfall 0.00 in
Snow Depth Not available.
5:57 AM 5:44 PM
Waxing Crescent, 10% visible
METAR MROC 110700Z 08007KT 9999 FEW030 21/15 A3002 NOSIG

10-Day Weather Forecast

No radar image for this location.
×

Almanac

Astronomy

Feb. 11, 2016 Rise Set
Actual Time
Civil Twilight
Nautical Twilight
Astronomical Twilight
Moon
Length of Visible Light
Length of Day
Tomorrow will be .
, % of the Moon is Illuminated

Today's Extremes

Country Highs Country Lows

Community

WunderPhotos

Upload Photos

1,892,030 photos uploaded!

WunderBlog® & News

Nearby

Air Quality

  Air Quality AQ Index Pollutant
Not available.

Snow Depth

Station Depth Elevation

Earthquake Activity

City Distance Mag. Time & Date
Minimum magnitude displayed is 2.5.

Coastal Water Temperatures

Place Temperature

Stations

Nearby Weather Stations

Station Location Temp. Windchill Dew Point Humidity Wind Precip. Elev Updated Type